createdAt,value
2019-02-16T00:02:26.546Z,-3.60
2019-02-16T00:04:53.864Z,-3.60
2019-02-16T00:07:21.070Z,-3.60
2019-02-16T00:09:48.247Z,-3.70
2019-02-16T00:12:15.556Z,-3.70
2019-02-16T00:14:42.928Z,-3.70
2019-02-16T00:17:10.182Z,-3.70
2019-02-16T00:19:37.513Z,-3.60
2019-02-16T00:22:04.827Z,-3.50
2019-02-16T00:24:32.080Z,-3.50
2019-02-16T00:26:59.303Z,-3.50
2019-02-16T00:29:26.645Z,-3.60
2019-02-16T00:31:53.767Z,-3.70
2019-02-16T00:34:20.986Z,-3.70
2019-02-16T00:36:48.312Z,-3.70
2019-02-16T00:39:15.455Z,-3.70
2019-02-16T00:41:42.592Z,-3.80
2019-02-16T00:44:09.900Z,-3.80
2019-02-16T00:46:37.043Z,-3.80
2019-02-16T00:49:04.351Z,-3.90
2019-02-16T00:51:31.598Z,-3.80
2019-02-16T00:53:59.006Z,-3.80
2019-02-16T00:56:26.372Z,-3.70
2019-02-16T00:58:54.083Z,-3.60
2019-02-16T01:01:21.315Z,-3.60
2019-02-16T01:03:48.424Z,-3.60
2019-02-16T01:06:15.689Z,-3.60
2019-02-16T01:08:43.039Z,-3.70
2019-02-16T01:11:10.352Z,-3.70
2019-02-16T01:13:37.702Z,-3.60
2019-02-16T01:16:05.016Z,-3.60
2019-02-16T01:18:32.348Z,-3.50
2019-02-16T01:20:59.557Z,-3.40
2019-02-16T01:23:26.912Z,-3.30
2019-02-16T01:25:54.240Z,-3.20
2019-02-16T01:28:21.481Z,-3.20
2019-02-16T01:30:48.744Z,-3.20
2019-02-16T01:33:16.194Z,-3.20
2019-02-16T01:35:43.521Z,-3.30
2019-02-16T01:38:10.981Z,-3.40
2019-02-16T01:40:38.220Z,-3.50
2019-02-16T01:43:05.338Z,-3.50
2019-02-16T01:45:32.684Z,-3.50
2019-02-16T01:47:59.888Z,-3.60
2019-02-16T01:50:27.154Z,-3.70
2019-02-16T01:52:54.251Z,-3.70
2019-02-16T01:55:21.574Z,-3.70
2019-02-16T01:57:48.893Z,-3.70
2019-02-16T02:00:16.107Z,-3.50
2019-02-16T02:02:43.414Z,-3.60
2019-02-16T02:05:10.664Z,-3.60
2019-02-16T02:07:37.974Z,-3.60
2019-02-16T02:10:06.245Z,-3.70
2019-02-16T02:12:33.563Z,-3.80
2019-02-16T02:15:00.900Z,-3.80
2019-02-16T02:17:28.220Z,-3.80
2019-02-16T02:19:55.572Z,-3.80
2019-02-16T02:22:22.791Z,-3.80
2019-02-16T02:24:50.114Z,-3.80
2019-02-16T02:27:17.419Z,-3.80
2019-02-16T02:29:44.794Z,-3.70
2019-02-16T02:32:12.098Z,-3.70
2019-02-16T02:34:39.420Z,-3.70
2019-02-16T02:37:06.766Z,-3.70
2019-02-16T02:39:34.117Z,-3.80
2019-02-16T02:42:01.457Z,-3.80
2019-02-16T02:44:28.804Z,-3.70
2019-02-16T02:46:56.168Z,-3.80
2019-02-16T02:49:23.488Z,-3.90
2019-02-16T02:51:52.443Z,-3.90
2019-02-16T02:54:20.019Z,-3.90
2019-02-16T02:56:47.471Z,-3.90
2019-02-16T02:59:14.585Z,-4.00
2019-02-16T03:01:41.928Z,-4.00
2019-02-16T03:04:09.218Z,-3.90
2019-02-16T03:06:36.539Z,-3.90
2019-02-16T03:09:04.811Z,-3.90
2019-02-16T03:11:32.134Z,-3.90
2019-02-16T03:13:59.428Z,-3.90
2019-02-16T03:16:26.703Z,-4.00
2019-02-16T03:18:53.919Z,-4.00
2019-02-16T03:21:21.291Z,-4.00
2019-02-16T03:23:48.434Z,-4.00
2019-02-16T03:26:29.402Z,-4.00
2019-02-16T03:29:17.881Z,-4.00
2019-02-16T03:32:24.524Z,-3.90
2019-02-16T03:35:11.736Z,-4.00
2019-02-16T03:38:23.780Z,-4.00
2019-02-16T03:40:51.116Z,-4.00
2019-02-16T03:43:18.372Z,-4.00
2019-02-16T03:45:45.729Z,-4.00
2019-02-16T03:48:13.062Z,-4.00
2019-02-16T03:50:40.276Z,-4.10
2019-02-16T03:53:07.601Z,-4.10
2019-02-16T03:55:34.964Z,-4.10
2019-02-16T03:58:02.220Z,-4.10
2019-02-16T04:00:29.580Z,-4.10
2019-02-16T04:02:56.888Z,-4.10
2019-02-16T04:05:24.236Z,-4.10
2019-02-16T04:07:51.545Z,-4.10
2019-02-16T04:10:18.900Z,-4.10
2019-02-16T04:12:46.222Z,-4.10
2019-02-16T04:15:13.460Z,-4.10
2019-02-16T04:17:40.693Z,-4.00
2019-02-16T04:20:08.111Z,-4.00
2019-02-16T04:22:35.394Z,-4.00
2019-02-16T04:25:02.848Z,-3.90
2019-02-16T04:27:30.164Z,-4.00
2019-02-16T04:29:57.382Z,-4.00
2019-02-16T04:32:24.604Z,-4.00
2019-02-16T04:34:51.838Z,-4.10
2019-02-16T04:37:19.231Z,-4.00
2019-02-16T04:39:46.475Z,-4.20
2019-02-16T04:42:13.803Z,-4.20
2019-02-16T04:44:41.122Z,-4.30
2019-02-16T04:47:08.336Z,-4.20
2019-02-16T04:49:35.564Z,-4.10
2019-02-16T04:52:02.775Z,-4.10
2019-02-16T04:54:30.037Z,-4.20
2019-02-16T04:56:57.388Z,-4.20
2019-02-16T04:59:24.647Z,-4.20
2019-02-16T05:01:51.884Z,-4.20
2019-02-16T05:04:19.118Z,-4.30
2019-02-16T05:06:46.350Z,-4.20
2019-02-16T05:09:13.701Z,-4.30
2019-02-16T05:11:40.809Z,-4.30
2019-02-16T05:14:08.064Z,-4.30
2019-02-16T05:16:35.272Z,-4.30
2019-02-16T05:19:02.575Z,-4.30
2019-02-16T05:21:29.884Z,-4.40
2019-02-16T05:23:57.194Z,-4.40
2019-02-16T05:26:24.567Z,-4.40
2019-02-16T05:28:51.765Z,-4.30
2019-02-16T05:31:19.271Z,-4.30
2019-02-16T05:33:46.561Z,-4.30
2019-02-16T05:36:13.903Z,-4.30
2019-02-16T05:38:41.150Z,-4.40
2019-02-16T05:41:08.363Z,-4.40
2019-02-16T05:43:35.612Z,-4.40
2019-02-16T05:46:03.775Z,-4.40
2019-02-16T05:48:31.147Z,-4.40
2019-02-16T05:50:58.467Z,-4.50
2019-02-16T05:53:25.592Z,-4.50
2019-02-16T05:55:52.852Z,-4.60
2019-02-16T05:58:20.207Z,-4.70
2019-02-16T06:00:47.506Z,-4.60
2019-02-16T06:03:14.890Z,-4.60
2019-02-16T06:05:42.092Z,-4.50
2019-02-16T06:08:09.390Z,-4.50
2019-02-16T06:10:36.673Z,-4.50
2019-02-16T06:13:04.015Z,-4.40
2019-02-16T06:15:31.364Z,-4.50
2019-02-16T06:17:58.695Z,-4.50
2019-02-16T06:20:25.744Z,-4.50
2019-02-16T06:22:53.160Z,-4.50
2019-02-16T06:25:20.554Z,-4.40
2019-02-16T06:27:47.790Z,-4.40
2019-02-16T06:30:15.134Z,-4.40
2019-02-16T06:32:42.484Z,-4.30
2019-02-16T06:35:25.747Z,-4.20
2019-02-16T06:37:52.870Z,-4.20
2019-02-16T06:40:20.227Z,-4.10
2019-02-16T06:42:47.536Z,-4.10
2019-02-16T06:45:14.872Z,-4.10
2019-02-16T06:47:42.207Z,-4.10
2019-02-16T06:50:09.411Z,-4.10
2019-02-16T06:52:36.770Z,-3.90
2019-02-16T06:55:04.104Z,-3.90
2019-02-16T06:57:31.721Z,-3.90
2019-02-16T06:59:59.078Z,-3.80
2019-02-16T07:02:28.338Z,-3.80
2019-02-16T07:04:55.689Z,-3.70
2019-02-16T07:07:23.049Z,-3.70
2019-02-16T07:09:50.368Z,-3.70
2019-02-16T07:12:17.676Z,-3.60
2019-02-16T07:14:44.974Z,-3.30
2019-02-16T07:17:25.423Z,-3.30
2019-02-16T07:19:55.452Z,-3.10
2019-02-16T07:22:22.688Z,-3.00
2019-02-16T07:24:50.039Z,-2.80
2019-02-16T07:27:17.250Z,-2.70
2019-02-16T07:29:44.513Z,-2.50
2019-02-16T07:32:11.857Z,-2.40
2019-02-16T07:34:39.052Z,-2.00
2019-02-16T07:37:06.344Z,-1.80
2019-02-16T07:39:33.556Z,-1.50
2019-02-16T07:42:00.865Z,-1.40
2019-02-16T07:44:37.516Z,-1.30
2019-02-16T07:47:18.884Z,-1.10
2019-02-16T07:49:51.916Z,-1.00
2019-02-16T07:52:28.008Z,-0.80
2019-02-16T07:54:59.845Z,-0.70
2019-02-16T07:57:32.279Z,-0.50
2019-02-16T08:00:06.835Z,-0.30
2019-02-16T08:02:40.307Z,-0.10
2019-02-16T08:05:20.175Z,0.00
2019-02-16T08:08:09.795Z,0.20
2019-02-16T08:10:56.779Z,0.30
2019-02-16T08:13:49.236Z,0.40
2019-02-16T08:16:22.599Z,0.50
2019-02-16T08:19:09.535Z,0.60
2019-02-16T08:21:53.855Z,0.70
2019-02-16T08:24:34.772Z,0.70
2019-02-16T08:27:17.132Z,0.90
2019-02-16T08:29:53.140Z,0.90
2019-02-16T08:32:32.282Z,0.90
2019-02-16T08:35:07.419Z,1.00
2019-02-16T08:37:44.511Z,1.10
2019-02-16T08:40:38.952Z,1.10
2019-02-16T08:43:14.831Z,1.30
2019-02-16T08:45:51.371Z,1.50
2019-02-16T08:48:40.951Z,1.60
2019-02-16T08:51:33.720Z,1.80
2019-02-16T08:54:09.927Z,1.90
2019-02-16T08:56:59.453Z,2.00
2019-02-16T08:59:34.256Z,2.10
2019-02-16T09:02:13.867Z,2.30
2019-02-16T09:05:09.583Z,2.40
2019-02-16T09:07:43.468Z,2.40
2019-02-16T09:10:29.148Z,2.50
2019-02-16T09:13:08.014Z,2.60
2019-02-16T09:16:07.119Z,2.70
2019-02-16T09:18:49.601Z,2.80
2019-02-16T09:21:26.610Z,2.80
2019-02-16T09:24:28.476Z,2.90
2019-02-16T09:27:30.753Z,3.00
2019-02-16T09:30:16.144Z,3.20
2019-02-16T09:33:06.023Z,3.30
2019-02-16T09:35:54.840Z,3.40
2019-02-16T09:38:48.228Z,3.50
2019-02-16T09:41:43.216Z,3.60
2019-02-16T09:44:28.780Z,3.70
2019-02-16T09:47:14.657Z,3.90
2019-02-16T09:49:51.149Z,4.00
2019-02-16T09:52:36.764Z,4.10
2019-02-16T09:55:32.928Z,4.10
2019-02-16T09:58:31.704Z,4.40
2019-02-16T10:01:18.603Z,4.60
2019-02-16T10:04:04.291Z,4.80
2019-02-16T10:06:49.326Z,5.00
2019-02-16T10:09:22.460Z,5.10
2019-02-16T10:12:09.019Z,5.20
2019-02-16T10:14:47.328Z,5.30
2019-02-16T10:17:29.623Z,5.30
2019-02-16T10:20:03.244Z,5.50
2019-02-16T10:22:53.130Z,5.70
2019-02-16T10:25:42.924Z,5.90
2019-02-16T10:28:34.404Z,6.20
2019-02-16T10:31:10.846Z,6.50
2019-02-16T10:33:54.432Z,6.80
2019-02-16T10:36:29.349Z,7.20
2019-02-16T10:39:19.323Z,7.40
2019-02-16T10:42:21.518Z,7.60
2019-02-16T10:45:23.727Z,7.70
2019-02-16T10:47:59.677Z,7.80
2019-02-16T10:50:46.666Z,7.70
2019-02-16T10:53:41.490Z,7.70
2019-02-16T10:56:15.180Z,7.70
2019-02-16T10:58:52.073Z,7.60
2019-02-16T11:01:42.076Z,7.60
2019-02-16T11:04:38.026Z,7.70
2019-02-16T11:07:32.772Z,7.60
2019-02-16T11:10:18.007Z,7.60
2019-02-16T11:13:10.391Z,7.70
2019-02-16T11:15:57.372Z,7.70
2019-02-16T11:18:46.776Z,7.80
2019-02-16T11:21:42.745Z,7.80
2019-02-16T11:24:35.865Z,7.90
2019-02-16T11:27:16.045Z,7.90
2019-02-16T11:29:52.666Z,8.00
2019-02-16T11:32:35.678Z,8.10
2019-02-16T11:35:30.540Z,8.20
2019-02-16T11:38:16.494Z,8.30
2019-02-16T11:41:05.271Z,8.30
2019-02-16T11:43:54.863Z,8.30
2019-02-16T11:46:37.921Z,8.50
2019-02-16T11:49:27.681Z,8.60
2019-02-16T11:52:17.187Z,8.70
2019-02-16T11:55:04.080Z,8.90
2019-02-16T11:57:49.488Z,8.90
2019-02-16T12:00:34.791Z,9.10
2019-02-16T12:03:12.024Z,9.20
2019-02-16T12:05:47.083Z,9.20
2019-02-16T12:08:42.915Z,9.20
2019-02-16T12:11:21.792Z,9.20
2019-02-16T12:14:14.371Z,9.20
2019-02-16T12:17:02.197Z,9.10
2019-02-16T12:19:47.920Z,9.10
2019-02-16T12:22:43.593Z,9.00
2019-02-16T12:25:23.013Z,9.00
2019-02-16T12:28:21.919Z,8.90
2019-02-16T12:31:08.223Z,8.80
2019-02-16T12:33:58.040Z,8.80
2019-02-16T12:36:39.435Z,8.70
2019-02-16T12:39:24.786Z,8.50
2019-02-16T12:42:07.999Z,8.40
2019-02-16T12:44:59.097Z,8.30
2019-02-16T12:47:42.932Z,8.40
2019-02-16T12:50:28.689Z,8.40
2019-02-16T12:53:18.457Z,8.60
2019-02-16T12:55:56.500Z,8.70
2019-02-16T12:58:46.296Z,8.70
2019-02-16T13:01:32.345Z,8.70
2019-02-16T13:04:19.210Z,8.80
2019-02-16T13:07:08.971Z,8.90
2019-02-16T13:09:51.609Z,9.10
2019-02-16T13:12:38.565Z,9.20
2019-02-16T13:15:24.321Z,9.30
2019-02-16T13:18:14.133Z,9.30
2019-02-16T13:20:56.869Z,9.20
2019-02-16T13:23:44.730Z,9.30
2019-02-16T13:26:29.788Z,9.30
2019-02-16T13:29:22.723Z,9.40
2019-02-16T13:32:08.279Z,9.50
2019-02-16T13:34:55.120Z,9.40
2019-02-16T13:37:48.358Z,9.40
2019-02-16T13:40:43.964Z,9.50
2019-02-16T13:43:26.153Z,9.40
2019-02-16T13:46:15.512Z,9.40
2019-02-16T13:48:47.987Z,9.40
2019-02-16T13:51:28.324Z,9.30
2019-02-16T13:54:18.937Z,9.20
2019-02-16T13:57:05.455Z,9.10
2019-02-16T13:59:50.939Z,9.00
2019-02-16T14:02:36.494Z,8.90
2019-02-16T14:05:11.444Z,8.80
2019-02-16T14:07:49.592Z,8.70
2019-02-16T14:10:42.412Z,8.70
2019-02-16T14:13:16.253Z,8.60
2019-02-16T14:16:03.260Z,8.50
2019-02-16T14:18:30.576Z,8.50
2019-02-16T14:20:57.787Z,8.50
2019-02-16T14:23:25.145Z,8.40
2019-02-16T14:25:52.390Z,8.30
2019-02-16T14:28:19.716Z,8.30
2019-02-16T14:30:47.095Z,8.20
2019-02-16T14:33:14.427Z,8.20
2019-02-16T14:35:41.735Z,8.10
2019-02-16T14:38:31.811Z,8.10
2019-02-16T14:40:59.275Z,8.00
2019-02-16T14:43:26.379Z,8.00
2019-02-16T14:45:53.768Z,7.90
2019-02-16T14:48:21.076Z,7.90
2019-02-16T14:50:48.264Z,7.80
2019-02-16T14:53:15.541Z,7.70
2019-02-16T14:55:51.623Z,7.80
2019-02-16T14:58:12.056Z,7.80
2019-02-16T15:00:39.304Z,7.80
2019-02-16T15:03:06.610Z,7.70
2019-02-16T15:05:33.844Z,7.60
2019-02-16T15:08:01.211Z,7.60
2019-02-16T15:10:28.541Z,7.50
2019-02-16T15:12:55.780Z,7.40
2019-02-16T15:15:22.883Z,7.30
2019-02-16T15:17:50.103Z,7.30
2019-02-16T15:20:17.302Z,7.20
2019-02-16T15:22:44.652Z,7.10
2019-02-16T15:25:11.979Z,7.00
2019-02-16T15:27:39.313Z,6.90
2019-02-16T15:30:11.816Z,6.90
2019-02-16T15:32:39.165Z,6.80
2019-02-16T15:35:07.613Z,6.70
2019-02-16T15:37:34.812Z,6.60
2019-02-16T15:40:02.206Z,6.50
2019-02-16T15:42:29.584Z,6.50
2019-02-16T15:44:56.791Z,6.40
2019-02-16T15:47:24.100Z,6.30
2019-02-16T15:49:51.436Z,6.40
2019-02-16T15:52:18.748Z,6.40
2019-02-16T15:54:46.110Z,6.50
2019-02-16T15:57:13.392Z,6.60
2019-02-16T15:59:40.643Z,6.60
2019-02-16T16:02:08.059Z,6.60
2019-02-16T16:04:35.418Z,6.60
2019-02-16T16:07:04.635Z,6.60
2019-02-16T16:09:48.555Z,6.60
2019-02-16T16:12:33.954Z,6.60
2019-02-16T16:15:29.791Z,6.50
2019-02-16T16:18:22.748Z,6.40
2019-02-16T16:21:15.639Z,6.40
2019-02-16T16:24:11.599Z,6.40
2019-02-16T16:26:56.792Z,6.40
2019-02-16T16:29:42.619Z,6.40
2019-02-16T16:32:47.744Z,6.40
2019-02-16T16:35:36.899Z,6.40
2019-02-16T16:38:15.687Z,6.40
2019-02-16T16:41:01.152Z,6.40
2019-02-16T16:43:46.945Z,6.30
2019-02-16T16:46:30.036Z,6.40
2019-02-16T16:49:20.103Z,6.30
2019-02-16T16:52:09.356Z,6.40
2019-02-16T16:54:42.706Z,6.30
2019-02-16T16:57:44.797Z,6.40
2019-02-16T17:00:23.980Z,6.30
2019-02-16T17:03:10.896Z,6.30
2019-02-16T17:05:52.326Z,6.30
2019-02-16T17:08:54.479Z,6.00
2019-02-16T17:11:40.335Z,5.90
2019-02-16T17:14:33.159Z,5.70
2019-02-16T17:17:16.829Z,5.50
2019-02-16T17:20:06.402Z,5.50
2019-02-16T17:22:56.359Z,5.50
2019-02-16T17:25:49.019Z,5.60
2019-02-16T17:28:29.783Z,5.70
2019-02-16T17:31:21.292Z,5.50
2019-02-16T17:33:56.266Z,5.40
2019-02-16T17:36:30.045Z,5.30
2019-02-16T17:39:07.156Z,5.40
2019-02-16T17:41:44.099Z,5.20
2019-02-16T17:44:23.168Z,5.10
2019-02-16T17:47:30.319Z,5.10
2019-02-16T17:50:15.711Z,5.20
2019-02-16T17:53:02.173Z,5.20
2019-02-16T17:55:45.320Z,5.30
2019-02-16T17:58:35.027Z,5.30
2019-02-16T18:01:22.202Z,5.40
2019-02-16T18:04:09.057Z,5.50
2019-02-16T18:06:51.284Z,5.50
2019-02-16T18:09:34.803Z,5.50
2019-02-16T18:12:40.053Z,5.50
2019-02-16T18:15:20.188Z,5.40
2019-02-16T18:18:10.639Z,5.10
2019-02-16T18:21:16.045Z,4.90
2019-02-16T18:23:48.548Z,4.90
2019-02-16T18:26:35.427Z,4.90
2019-02-16T18:29:27.163Z,4.90
2019-02-16T18:32:12.743Z,4.80
2019-02-16T18:34:55.355Z,4.90
2019-02-16T18:37:31.849Z,5.00
2019-02-16T18:40:24.675Z,5.10
2019-02-16T18:43:02.256Z,5.00
2019-02-16T18:45:51.837Z,5.00
2019-02-16T18:48:38.785Z,5.10
2019-02-16T18:51:24.578Z,5.30
2019-02-16T18:54:11.532Z,5.60
2019-02-16T18:57:06.315Z,5.60
2019-02-16T18:59:44.860Z,5.80
2019-02-16T19:02:23.730Z,5.80
2019-02-16T19:05:09.133Z,5.80
2019-02-16T19:07:54.578Z,5.80
2019-02-16T19:10:39.786Z,5.70
2019-02-16T19:13:32.543Z,5.70
2019-02-16T19:16:26.471Z,5.60
2019-02-16T19:19:02.309Z,5.50
2019-02-16T19:21:37.560Z,5.60
2019-02-16T19:24:22.796Z,5.50
2019-02-16T19:27:16.409Z,5.50
2019-02-16T19:30:03.136Z,5.50
2019-02-16T19:32:40.450Z,5.50
2019-02-16T19:35:39.400Z,5.50
2019-02-16T19:38:31.947Z,5.50
2019-02-16T19:41:21.729Z,5.50
2019-02-16T19:44:08.781Z,5.50
2019-02-16T19:46:55.771Z,5.60
2019-02-16T19:49:45.564Z,5.50
2019-02-16T19:52:28.773Z,5.50
2019-02-16T19:55:03.563Z,5.60
2019-02-16T19:57:43.748Z,5.60
2019-02-16T20:00:29.328Z,5.70
2019-02-16T20:03:15.390Z,5.60
2019-02-16T20:06:02.180Z,5.70
2019-02-16T20:08:54.763Z,5.60
2019-02-16T20:11:49.036Z,5.70
2019-02-16T20:14:34.524Z,5.60
2019-02-16T20:17:11.032Z,5.70
2019-02-16T20:20:04.110Z,5.80
2019-02-16T20:22:48.011Z,6.00
2019-02-16T20:25:33.513Z,6.10
2019-02-16T20:28:29.395Z,6.20
2019-02-16T20:31:07.603Z,6.20
2019-02-16T20:33:43.687Z,6.20
2019-02-16T20:36:45.404Z,6.30
2019-02-16T20:39:23.648Z,6.30
2019-02-16T20:42:06.204Z,6.30
2019-02-16T20:44:45.350Z,6.30
2019-02-16T20:47:50.556Z,6.30
2019-02-16T20:50:50.107Z,6.30
2019-02-16T20:53:37.039Z,6.30
2019-02-16T20:56:16.451Z,6.30
2019-02-16T20:59:03.375Z,6.30
2019-02-16T21:01:59.100Z,6.30
2019-02-16T21:04:36.739Z,6.30
2019-02-16T21:07:26.700Z,6.30
2019-02-16T21:10:01.412Z,6.30
2019-02-16T21:13:00.282Z,6.30
2019-02-16T21:15:53.128Z,6.30
2019-02-16T21:18:40.121Z,6.30
2019-02-16T21:21:17.005Z,6.30
2019-02-16T21:23:51.571Z,6.30
2019-02-16T21:26:26.168Z,6.30
2019-02-16T21:29:15.909Z,6.30
2019-02-16T21:32:02.752Z,6.30
2019-02-16T21:34:52.156Z,6.30
2019-02-16T21:37:29.793Z,6.30
2019-02-16T21:40:06.115Z,6.30
2019-02-16T21:42:48.554Z,6.30
2019-02-16T21:45:47.637Z,6.30
2019-02-16T21:48:43.562Z,6.20
2019-02-16T21:51:31.580Z,6.20
2019-02-16T21:54:20.152Z,6.20
2019-02-16T21:57:04.909Z,6.20
2019-02-16T21:59:52.037Z,6.20
2019-02-16T22:02:51.053Z,6.10
2019-02-16T22:05:37.106Z,6.10
2019-02-16T22:08:26.513Z,6.10
2019-02-16T22:11:28.341Z,6.10
2019-02-16T22:13:55.641Z,6.10
2019-02-16T22:16:23.080Z,6.10
2019-02-16T22:18:50.329Z,6.00
2019-02-16T22:21:17.656Z,6.00
2019-02-16T22:23:45.202Z,6.00
2019-02-16T22:26:12.504Z,6.00
2019-02-16T22:28:39.707Z,6.00
2019-02-16T22:31:07.080Z,6.00
2019-02-16T22:33:34.391Z,6.00
2019-02-16T22:36:01.602Z,6.00
2019-02-16T22:38:28.928Z,6.00
2019-02-16T22:40:56.160Z,6.00
2019-02-16T22:43:23.585Z,6.00
2019-02-16T22:45:50.828Z,5.90
2019-02-16T22:48:18.163Z,5.90
2019-02-16T22:50:45.375Z,5.90
2019-02-16T22:53:12.702Z,5.90
2019-02-16T22:55:39.891Z,5.90
2019-02-16T22:58:07.191Z,5.90
2019-02-16T23:00:46.512Z,5.90
2019-02-16T23:03:13.917Z,5.90
2019-02-16T23:05:41.310Z,5.90
2019-02-16T23:08:08.514Z,5.80
2019-02-16T23:10:35.864Z,5.80
2019-02-16T23:13:03.379Z,5.80
2019-02-16T23:15:30.710Z,5.70
2019-02-16T23:17:58.040Z,5.70
2019-02-16T23:20:25.248Z,5.70
2019-02-16T23:22:52.492Z,5.70
2019-02-16T23:25:19.822Z,5.70
2019-02-16T23:27:47.067Z,5.60
2019-02-16T23:30:14.303Z,5.70
2019-02-16T23:32:41.664Z,5.70
2019-02-16T23:35:09.159Z,5.70
2019-02-16T23:37:36.422Z,5.70
2019-02-16T23:40:04.014Z,5.70
2019-02-16T23:42:31.308Z,5.70
2019-02-16T23:44:58.634Z,5.60
2019-02-16T23:47:25.805Z,5.70
2019-02-16T23:49:53.095Z,5.60
2019-02-16T23:52:20.395Z,5.70
2019-02-16T23:54:47.630Z,5.70
2019-02-16T23:57:14.959Z,5.60
2019-02-16T23:59:42.609Z,5.60
